createdAt,value
2023-03-28T00:00:57.409Z,23.98
2023-03-28T00:03:27.210Z,24.48
2023-03-28T00:06:00.869Z,25.17
2023-03-28T00:08:29.487Z,24.83
2023-03-28T00:11:23.967Z,24.73
2023-03-28T00:13:57.717Z,24.75
2023-03-28T00:16:25.850Z,24.67
2023-03-28T00:18:53.489Z,24.67
2023-03-28T00:21:23.670Z,24.83
2023-03-28T00:23:57.118Z,24.48
2023-03-28T00:26:26.627Z,24.56
2023-03-28T00:28:54.838Z,24.25
2023-03-28T00:31:23.271Z,24.32
2023-03-28T00:33:50.770Z,24.49
2023-03-28T00:36:23.041Z,24.92
2023-03-28T00:38:50.397Z,25.40
2023-03-28T00:41:18.474Z,25.64
2023-03-28T00:43:48.435Z,26.10
2023-03-28T00:46:30.707Z,25.77
2023-03-28T00:49:01.496Z,25.82
2023-03-28T00:51:36.878Z,26.67
2023-03-28T00:54:08.495Z,25.81
2023-03-28T00:56:37.912Z,25.37
2023-03-28T00:59:10.812Z,26.04
2023-03-28T01:01:38.435Z,26.28
2023-03-28T01:04:06.892Z,27.86
2023-03-28T01:06:40.585Z,27.62
2023-03-28T01:09:09.970Z,27.35
2023-03-28T01:11:41.016Z,27.75
2023-03-28T01:14:17.812Z,27.27
2023-03-28T01:16:47.827Z,30.00
2023-03-28T01:19:37.336Z,27.43
2023-03-28T01:22:16.588Z,25.93
2023-03-28T01:24:59.130Z,26.25
2023-03-28T01:27:45.635Z,28.11
2023-03-28T01:30:34.109Z,26.60
2023-03-28T01:33:49.565Z,26.84
2023-03-28T01:36:45.704Z,27.54
2023-03-28T01:39:39.696Z,27.62
2023-03-28T01:42:38.105Z,27.73
2023-03-28T01:45:41.436Z,29.99
2023-03-28T01:48:14.883Z,30.75
2023-03-28T01:50:48.306Z,32.30
2023-03-28T01:53:31.882Z,31.11
2023-03-28T01:56:26.584Z,30.67
2023-03-28T01:59:04.969Z,32.08
2023-03-28T02:02:01.913Z,34.12
2023-03-28T02:04:33.696Z,32.70
2023-03-28T02:07:03.028Z,33.98
2023-03-28T02:09:37.747Z,33.33
2023-03-28T02:12:52.081Z,33.16
2023-03-28T02:15:39.768Z,36.27
2023-03-28T02:18:34.201Z,35.17
2023-03-28T02:21:45.538Z,34.08
2023-03-28T02:24:42.513Z,34.33
2023-03-28T02:27:22.596Z,34.00
2023-03-28T02:30:09.811Z,33.85
2023-03-28T02:32:38.693Z,34.29
2023-03-28T02:35:07.262Z,34.18
2023-03-28T02:38:08.320Z,34.41
2023-03-28T02:40:54.114Z,34.23
2023-03-28T02:43:33.410Z,35.03
2023-03-28T02:46:01.211Z,32.89
2023-03-28T02:48:49.627Z,33.32
2023-03-28T02:51:23.645Z,35.18
2023-03-28T02:54:12.644Z,36.93
2023-03-28T02:56:53.017Z,35.05
2023-03-28T02:59:46.469Z,37.94
2023-03-28T03:02:19.161Z,36.17
2023-03-28T03:04:46.772Z,33.99
2023-03-28T03:07:14.590Z,32.70
2023-03-28T03:09:43.793Z,32.32
2023-03-28T03:12:13.725Z,31.88
2023-03-28T03:14:42.096Z,30.72
2023-03-28T03:17:30.446Z,32.98
2023-03-28T03:19:59.105Z,34.14
2023-03-28T03:22:35.173Z,31.34
2023-03-28T03:25:06.727Z,31.89
2023-03-28T03:27:41.012Z,32.30
2023-03-28T03:30:11.877Z,31.58
2023-03-28T03:33:00.712Z,31.83
2023-03-28T03:35:33.540Z,31.53
2023-03-28T03:38:04.679Z,31.72
2023-03-28T03:40:32.155Z,31.34
2023-03-28T03:43:00.292Z,31.55
2023-03-28T03:45:28.582Z,33.14
2023-03-28T03:47:56.005Z,32.68
2023-03-28T03:50:23.564Z,34.27
2023-03-28T03:52:51.131Z,34.39
2023-03-28T03:55:24.065Z,31.90
2023-03-28T03:57:51.373Z,33.69
2023-03-28T04:00:18.850Z,35.46
2023-03-28T04:02:50.596Z,35.88
2023-03-28T04:05:22.881Z,36.14
2023-03-28T04:08:02.199Z,37.47
2023-03-28T04:10:38.515Z,36.85
2023-03-28T04:13:05.998Z,33.33
2023-03-28T04:15:34.961Z,38.32
2023-03-28T04:18:06.910Z,38.25
2023-03-28T04:20:41.173Z,37.19
2023-03-28T04:23:09.677Z,36.58
2023-03-28T04:25:41.716Z,40.75
2023-03-28T04:28:19.838Z,40.17
2023-03-28T04:30:59.893Z,36.69
2023-03-28T04:33:50.088Z,38.16
2023-03-28T04:36:22.538Z,40.26
2023-03-28T04:39:02.338Z,40.62
2023-03-28T04:41:46.325Z,42.28
2023-03-28T04:44:29.509Z,42.39
2023-03-28T04:47:02.407Z,40.82
2023-03-28T04:49:29.897Z,39.65
2023-03-28T04:51:57.317Z,37.62
2023-03-28T04:54:24.627Z,40.35
2023-03-28T04:57:05.000Z,40.78
2023-03-28T04:59:46.750Z,40.92
2023-03-28T05:02:38.060Z,43.12
2023-03-28T05:05:07.602Z,44.02
2023-03-28T05:07:35.688Z,43.29
2023-03-28T05:10:04.311Z,41.97
2023-03-28T05:12:37.108Z,41.89
2023-03-28T05:15:06.329Z,41.36
2023-03-28T05:17:42.901Z,40.82
2023-03-28T05:20:32.657Z,39.81
2023-03-28T05:23:01.356Z,39.44
2023-03-28T05:25:29.352Z,40.29
2023-03-28T05:27:56.959Z,40.58
2023-03-28T05:30:25.297Z,40.50
2023-03-28T05:32:55.569Z,39.59
2023-03-28T05:35:23.047Z,39.52
2023-03-28T05:37:51.559Z,39.50
2023-03-28T05:40:19.388Z,39.80
2023-03-28T05:42:46.771Z,41.21
2023-03-28T05:45:16.423Z,39.29
2023-03-28T05:47:56.928Z,38.52
2023-03-28T05:50:24.950Z,37.05
2023-03-28T05:52:56.985Z,38.38
2023-03-28T05:55:24.691Z,37.71
2023-03-28T05:57:52.123Z,35.21
2023-03-28T06:00:21.208Z,35.31
2023-03-28T06:02:54.796Z,31.94
2023-03-28T06:05:31.485Z,28.13
2023-03-28T06:07:59.035Z,27.74
2023-03-28T06:10:29.369Z,27.47
2023-03-28T06:13:11.663Z,25.20
2023-03-28T06:15:39.030Z,28.00
2023-03-28T06:18:06.840Z,32.00
2023-03-28T06:20:34.233Z,32.96
2023-03-28T06:23:03.649Z,30.54
2023-03-28T06:25:31.761Z,29.62
2023-03-28T06:27:59.193Z,26.36
2023-03-28T06:30:26.536Z,24.65
2023-03-28T06:32:54.362Z,22.91
2023-03-28T06:35:21.762Z,22.08
2023-03-28T06:37:49.437Z,22.48
2023-03-28T06:40:23.391Z,22.23
2023-03-28T06:42:51.217Z,22.54
2023-03-28T06:45:30.239Z,19.44
2023-03-28T06:48:03.068Z,21.06
2023-03-28T06:50:57.227Z,19.28
2023-03-28T06:53:26.282Z,20.85
2023-03-28T06:55:55.013Z,20.62
2023-03-28T06:58:23.251Z,21.05
2023-03-28T07:01:01.331Z,20.21
2023-03-28T07:03:52.044Z,18.91
2023-03-28T07:06:21.968Z,19.40
2023-03-28T07:08:49.516Z,19.10
2023-03-28T07:11:20.592Z,19.65
2023-03-28T07:13:50.580Z,18.90
2023-03-28T07:16:19.662Z,18.82
2023-03-28T07:18:47.205Z,18.69
2023-03-28T07:21:20.531Z,18.56
2023-03-28T07:23:47.922Z,18.86
2023-03-28T07:26:19.139Z,19.26
2023-03-28T07:28:46.579Z,19.65
2023-03-28T07:31:13.946Z,19.22
2023-03-28T07:33:41.476Z,19.53
2023-03-28T07:36:15.687Z,19.09
2023-03-28T07:38:48.067Z,18.87
2023-03-28T07:41:17.018Z,18.60
2023-03-28T07:43:44.867Z,18.70
2023-03-28T07:46:15.021Z,18.16
2023-03-28T07:48:43.481Z,17.62
2023-03-28T07:51:11.373Z,17.85
2023-03-28T07:53:39.691Z,18.54
2023-03-28T07:56:12.149Z,16.69
2023-03-28T07:58:58.442Z,17.29
2023-03-28T08:01:26.419Z,15.48
2023-03-28T08:03:59.464Z,16.21
2023-03-28T08:06:38.145Z,14.68
2023-03-28T08:09:10.577Z,15.10
2023-03-28T08:11:42.119Z,15.33
2023-03-28T08:14:15.788Z,14.68
2023-03-28T08:16:44.340Z,15.50
2023-03-28T08:19:12.676Z,15.35
2023-03-28T08:22:02.629Z,14.71
2023-03-28T08:24:36.132Z,14.97
2023-03-28T08:27:12.497Z,15.12
2023-03-28T08:29:41.719Z,15.40
2023-03-28T08:32:09.924Z,17.04
2023-03-28T08:34:38.033Z,16.59
2023-03-28T08:37:12.011Z,17.10
2023-03-28T08:39:42.704Z,16.10
2023-03-28T08:42:14.667Z,15.90
2023-03-28T08:45:03.395Z,16.29
2023-03-28T08:47:33.067Z,16.29
2023-03-28T08:50:12.279Z,16.40
2023-03-28T08:52:41.667Z,15.35
2023-03-28T08:55:36.856Z,16.11
2023-03-28T08:58:07.129Z,16.29
2023-03-28T09:00:38.908Z,16.69
2023-03-28T09:03:13.022Z,17.50
2023-03-28T09:06:02.357Z,17.03
2023-03-28T09:09:04.732Z,14.85
2023-03-28T09:11:58.606Z,15.87
2023-03-28T09:14:41.186Z,16.17
2023-03-28T09:17:31.277Z,16.07
2023-03-28T09:20:16.490Z,14.99
2023-03-28T09:23:01.744Z,16.23
2023-03-28T09:26:01.732Z,16.19
2023-03-28T09:28:44.888Z,16.75
2023-03-28T09:31:14.296Z,15.03
2023-03-28T09:33:46.082Z,14.97
2023-03-28T09:36:25.942Z,14.71
2023-03-28T09:38:59.055Z,14.18
2023-03-28T09:41:43.988Z,15.91
2023-03-28T09:44:47.328Z,13.47
2023-03-28T09:47:53.398Z,12.68
2023-03-28T09:50:24.407Z,11.94
2023-03-28T09:52:57.480Z,10.73
2023-03-28T09:55:28.009Z,12.29
2023-03-28T09:58:05.421Z,11.50
2023-03-28T10:00:46.560Z,13.82
2023-03-28T10:03:56.664Z,13.73
2023-03-28T10:06:45.600Z,14.53
2023-03-28T10:09:12.935Z,15.83
2023-03-28T10:11:54.515Z,14.82
2023-03-28T10:14:42.019Z,15.14
2023-03-28T10:17:27.623Z,15.94
2023-03-28T10:20:01.841Z,15.34
2023-03-28T10:22:39.370Z,16.54
2023-03-28T10:25:15.423Z,16.29
2023-03-28T10:27:44.417Z,16.96
2023-03-28T10:30:20.941Z,18.46
2023-03-28T10:33:21.333Z,18.30
2023-03-28T10:36:10.512Z,15.93
2023-03-28T10:38:48.507Z,14.50
2023-03-28T10:41:59.605Z,16.05
2023-03-28T10:44:59.855Z,17.04
2023-03-28T10:47:30.680Z,16.45
2023-03-28T10:50:07.163Z,17.71
2023-03-28T10:52:40.567Z,16.03
2023-03-28T10:55:20.808Z,16.78
2023-03-28T10:58:26.222Z,13.75
2023-03-28T11:01:04.715Z,13.85
2023-03-28T11:03:51.731Z,12.30
2023-03-28T11:06:39.484Z,11.73
2023-03-28T11:09:23.301Z,11.89
2023-03-28T11:13:04.814Z,11.99
2023-03-28T11:15:53.719Z,11.71
2023-03-28T11:18:48.245Z,13.24
2023-03-28T11:21:28.212Z,12.15
2023-03-28T11:24:23.992Z,12.10
2023-03-28T11:27:23.230Z,13.32
2023-03-28T11:30:14.758Z,12.28
2023-03-28T11:33:00.646Z,12.86
2023-03-28T11:35:33.973Z,13.44
2023-03-28T11:38:12.747Z,13.95
2023-03-28T11:41:07.253Z,12.94
2023-03-28T11:44:11.644Z,12.85
2023-03-28T11:46:56.558Z,13.75
2023-03-28T11:49:33.917Z,14.61
2023-03-28T11:52:09.164Z,13.21
2023-03-28T11:54:52.390Z,13.85
2023-03-28T11:57:28.997Z,12.85
2023-03-28T12:00:40.937Z,13.53
2023-03-28T12:03:37.363Z,14.83
2023-03-28T12:06:26.051Z,14.21
2023-03-28T12:09:04.441Z,13.56
2023-03-28T12:11:51.637Z,13.66
2023-03-28T12:14:37.763Z,14.49
2023-03-28T12:17:22.207Z,14.94
2023-03-28T12:19:49.744Z,14.36
2023-03-28T12:22:26.767Z,14.31
2023-03-28T12:25:18.368Z,13.42
2023-03-28T12:28:01.303Z,14.30
2023-03-28T12:30:45.461Z,14.26
2023-03-28T12:33:51.535Z,13.71
2023-03-28T12:37:12.291Z,13.48
2023-03-28T12:39:54.878Z,13.57
2023-03-28T12:42:27.295Z,13.93
2023-03-28T12:45:03.702Z,14.16
2023-03-28T12:47:45.058Z,14.95
2023-03-28T12:50:25.301Z,13.79
2023-03-28T12:52:53.686Z,13.72
2023-03-28T12:55:34.152Z,13.85
2023-03-28T12:58:20.764Z,14.78
2023-03-28T13:01:06.138Z,16.08
2023-03-28T13:03:42.388Z,14.86
2023-03-28T13:06:28.270Z,15.22
2023-03-28T13:09:14.528Z,15.60
2023-03-28T13:11:52.668Z,14.93
2023-03-28T13:14:36.607Z,15.50
2023-03-28T13:17:25.284Z,13.47
2023-03-28T13:19:53.516Z,13.54
2023-03-28T13:22:32.924Z,14.29
2023-03-28T13:25:22.259Z,14.90
2023-03-28T13:27:51.759Z,14.49
2023-03-28T13:30:21.527Z,14.21
2023-03-28T13:32:51.018Z,14.52
2023-03-28T13:35:42.995Z,14.52
2023-03-28T13:38:29.373Z,14.45
2023-03-28T13:41:01.377Z,13.84
2023-03-28T13:43:34.977Z,13.63
2023-03-28T13:46:19.513Z,14.17
2023-03-28T13:49:01.220Z,14.86
2023-03-28T13:51:39.104Z,14.90
2023-03-28T13:54:10.680Z,15.10
2023-03-28T13:56:43.653Z,16.36
2023-03-28T13:59:26.634Z,15.92
2023-03-28T14:01:57.507Z,15.36
2023-03-28T14:04:35.872Z,14.77
2023-03-28T14:07:03.488Z,14.49
2023-03-28T14:09:35.346Z,15.25
2023-03-28T14:12:06.627Z,14.80
2023-03-28T14:14:47.459Z,16.26
2023-03-28T14:17:18.291Z,16.65
2023-03-28T14:19:51.222Z,17.35
2023-03-28T14:22:21.586Z,17.37
2023-03-28T14:24:52.917Z,17.00
2023-03-28T14:27:41.505Z,17.29
2023-03-28T14:30:39.268Z,17.99
2023-03-28T14:33:14.667Z,17.93
2023-03-28T14:35:43.015Z,17.97
2023-03-28T14:38:30.089Z,18.31
2023-03-28T14:41:06.812Z,18.66
2023-03-28T14:43:34.578Z,18.32
2023-03-28T14:46:06.619Z,18.66
2023-03-28T14:48:36.963Z,18.96
2023-03-28T14:51:05.881Z,19.23
2023-03-28T14:53:40.950Z,18.94
2023-03-28T14:56:12.803Z,19.80
2023-03-28T14:58:43.817Z,20.21
2023-03-28T15:01:22.686Z,21.00
2023-03-28T15:04:06.685Z,20.44
2023-03-28T15:06:35.342Z,21.20
2023-03-28T15:09:11.269Z,20.36
2023-03-28T15:11:43.462Z,19.73
2023-03-28T15:14:22.991Z,20.33
2023-03-28T15:16:50.824Z,20.75
2023-03-28T15:19:34.365Z,20.02
2023-03-28T15:22:05.301Z,19.46
2023-03-28T15:24:35.513Z,20.45
2023-03-28T15:27:04.155Z,20.44
2023-03-28T15:29:36.050Z,19.87
2023-03-28T15:32:13.723Z,19.79
2023-03-28T15:34:55.536Z,19.66
2023-03-28T15:37:25.899Z,20.15
2023-03-28T15:39:53.837Z,21.87
2023-03-28T15:42:21.397Z,21.89
2023-03-28T15:44:57.567Z,20.43
2023-03-28T15:47:30.198Z,21.23
2023-03-28T15:50:36.070Z,19.99
2023-03-28T15:53:07.379Z,19.86
2023-03-28T15:55:35.031Z,20.56
2023-03-28T15:58:04.784Z,20.77
2023-03-28T16:00:42.462Z,20.50
2023-03-28T16:03:21.757Z,21.77
2023-03-28T16:06:01.880Z,22.51
2023-03-28T16:08:41.180Z,21.05
2023-03-28T16:11:17.146Z,21.07
2023-03-28T16:14:04.437Z,21.12
2023-03-28T16:16:56.431Z,21.89
2023-03-28T16:19:36.677Z,20.72
2023-03-28T16:22:04.107Z,21.36
2023-03-28T16:24:31.518Z,21.45
2023-03-28T16:26:59.840Z,22.23
2023-03-28T16:29:27.907Z,22.46
2023-03-28T16:31:55.265Z,22.39
2023-03-28T16:34:22.655Z,21.78
2023-03-28T16:36:50.041Z,23.13
2023-03-28T16:39:17.466Z,22.16
2023-03-28T16:41:44.761Z,23.41
2023-03-28T16:44:11.987Z,24.36
2023-03-28T16:46:39.498Z,24.52
2023-03-28T16:49:07.541Z,23.05
2023-03-28T16:51:34.870Z,23.97
2023-03-28T16:54:02.220Z,25.16
2023-03-28T16:56:30.266Z,25.16
2023-03-28T16:58:57.688Z,24.09
2023-03-28T17:01:25.229Z,22.64
2023-03-28T17:03:53.584Z,23.32
2023-03-28T17:06:21.864Z,22.72
2023-03-28T17:08:49.543Z,23.69
2023-03-28T17:11:16.885Z,24.15
2023-03-28T17:13:44.188Z,24.22
2023-03-28T17:16:11.618Z,24.09
2023-03-28T17:18:38.995Z,24.25
2023-03-28T17:21:09.329Z,23.97
2023-03-28T17:23:38.052Z,24.49
2023-03-28T17:26:08.323Z,24.98
2023-03-28T17:28:39.207Z,25.46
2023-03-28T17:31:11.745Z,25.22
2023-03-28T17:33:39.586Z,26.25
2023-03-28T17:36:22.001Z,26.49
2023-03-28T17:38:51.557Z,27.91
2023-03-28T17:41:19.883Z,29.62
2023-03-28T17:43:47.360Z,31.93
2023-03-28T17:46:15.210Z,32.05
2023-03-28T17:48:43.304Z,32.14
2023-03-28T17:51:11.679Z,31.87
2023-03-28T17:53:41.031Z,32.26
2023-03-28T17:56:09.743Z,33.21
2023-03-28T17:58:37.767Z,32.49
2023-03-28T18:01:13.518Z,32.77
2023-03-28T18:03:41.648Z,32.81
2023-03-28T18:06:29.363Z,32.63
2023-03-28T18:08:56.691Z,33.78
2023-03-28T18:11:24.027Z,34.19
2023-03-28T18:13:53.671Z,35.33
2023-03-28T18:16:21.035Z,35.89
2023-03-28T18:18:48.453Z,36.49
2023-03-28T18:21:15.852Z,36.57
2023-03-28T18:23:43.537Z,36.22
2023-03-28T18:26:12.138Z,35.96
2023-03-28T18:28:39.809Z,35.58
2023-03-28T18:31:12.498Z,36.21
2023-03-28T18:33:42.201Z,36.30
2023-03-28T18:36:10.699Z,35.31
2023-03-28T18:38:40.150Z,35.80
2023-03-28T18:41:08.368Z,35.92
2023-03-28T18:43:37.721Z,36.14
2023-03-28T18:46:07.763Z,35.60
2023-03-28T18:48:36.265Z,35.49
2023-03-28T18:51:06.653Z,35.98
2023-03-28T18:53:35.555Z,35.46
2023-03-28T18:56:04.074Z,34.90
2023-03-28T18:58:32.365Z,36.21
2023-03-28T19:01:04.074Z,36.67
2023-03-28T19:03:42.282Z,37.14
2023-03-28T19:06:12.402Z,36.30
2023-03-28T19:08:40.428Z,35.67
2023-03-28T19:11:19.034Z,36.55
2023-03-28T19:13:47.090Z,34.65
2023-03-28T19:16:19.391Z,34.37
2023-03-28T19:18:47.304Z,35.34
2023-03-28T19:21:16.723Z,34.71
2023-03-28T19:23:44.600Z,35.79
2023-03-28T19:26:13.099Z,35.57
2023-03-28T19:28:41.552Z,37.49
2023-03-28T19:31:11.173Z,37.29
2023-03-28T19:33:40.839Z,37.96
2023-03-28T19:36:09.801Z,38.76
2023-03-28T19:38:38.720Z,38.57
2023-03-28T19:41:15.744Z,38.64
2023-03-28T19:43:43.666Z,37.63
2023-03-28T19:46:15.477Z,38.38
2023-03-28T19:48:42.894Z,38.14
2023-03-28T19:51:10.323Z,37.21
2023-03-28T19:53:37.782Z,36.95
2023-03-28T19:56:06.770Z,36.92
2023-03-28T19:58:35.159Z,37.34
2023-03-28T20:01:04.084Z,37.73
2023-03-28T20:03:31.883Z,36.94
2023-03-28T20:06:08.540Z,37.61
2023-03-28T20:08:35.949Z,37.47
2023-03-28T20:11:07.218Z,37.97
2023-03-28T20:13:34.868Z,36.95
2023-03-28T20:16:04.365Z,36.34
2023-03-28T20:18:32.675Z,36.56
2023-03-28T20:21:02.654Z,36.32
2023-03-28T20:23:32.760Z,35.94
2023-03-28T20:26:01.685Z,35.95
2023-03-28T20:28:32.004Z,36.18
2023-03-28T20:30:59.777Z,38.11
2023-03-28T20:33:27.302Z,37.09
2023-03-28T20:35:57.133Z,37.72
2023-03-28T20:38:25.955Z,36.37
2023-03-28T20:40:53.324Z,36.45
2023-03-28T20:43:21.089Z,36.58
2023-03-28T20:45:56.250Z,37.41
2023-03-28T20:48:37.221Z,36.63
2023-03-28T20:51:14.313Z,36.56
2023-03-28T20:53:50.130Z,37.31
2023-03-28T20:56:19.988Z,36.72
2023-03-28T20:58:48.311Z,36.61
2023-03-28T21:01:16.516Z,36.85
2023-03-28T21:03:48.272Z,37.32
2023-03-28T21:06:28.900Z,38.34
2023-03-28T21:09:01.759Z,37.41
2023-03-28T21:11:31.983Z,37.20
2023-03-28T21:14:00.383Z,37.75
2023-03-28T21:16:29.495Z,37.59
2023-03-28T21:18:57.452Z,37.47
2023-03-28T21:21:25.187Z,37.66
2023-03-28T21:23:53.210Z,37.35
2023-03-28T21:26:22.947Z,37.53
2023-03-28T21:28:52.519Z,37.45
2023-03-28T21:31:24.919Z,38.87
2023-03-28T21:33:59.435Z,38.25
2023-03-28T21:36:28.033Z,38.67
2023-03-28T21:38:56.196Z,38.24
2023-03-28T21:41:23.891Z,38.68
2023-03-28T21:43:53.671Z,40.06
2023-03-28T21:46:21.995Z,39.50
2023-03-28T21:48:50.005Z,39.64
2023-03-28T21:51:17.833Z,39.33
2023-03-28T21:53:46.182Z,39.38
2023-03-28T21:56:16.279Z,38.62
2023-03-28T21:58:44.029Z,38.86
2023-03-28T22:01:13.861Z,39.74
2023-03-28T22:03:41.462Z,39.79
2023-03-28T22:06:09.172Z,40.32
2023-03-28T22:08:36.697Z,40.73
2023-03-28T22:11:13.492Z,40.66
2023-03-28T22:13:42.005Z,40.99
2023-03-28T22:16:09.638Z,39.47
2023-03-28T22:18:37.104Z,39.10
2023-03-28T22:21:04.971Z,38.53
2023-03-28T22:23:32.327Z,39.36
2023-03-28T22:25:59.669Z,39.87
2023-03-28T22:28:27.059Z,38.44
2023-03-28T22:30:55.345Z,41.35
2023-03-28T22:33:24.132Z,39.79
2023-03-28T22:35:51.806Z,38.29
2023-03-28T22:38:19.518Z,38.66
2023-03-28T22:40:47.622Z,38.90
2023-03-28T22:43:16.413Z,39.72
2023-03-28T22:45:43.895Z,38.77
2023-03-28T22:48:14.643Z,39.57
2023-03-28T22:50:44.301Z,39.97
2023-03-28T22:53:12.593Z,39.48
2023-03-28T22:55:41.696Z,40.43
2023-03-28T22:58:09.074Z,40.23
2023-03-28T23:00:36.622Z,39.61
2023-03-28T23:03:04.144Z,40.01
2023-03-28T23:05:32.005Z,40.15
2023-03-28T23:08:00.239Z,40.59
2023-03-28T23:10:28.118Z,40.88
2023-03-28T23:12:55.450Z,41.38
2023-03-28T23:15:22.873Z,40.72
2023-03-28T23:17:50.910Z,40.09
2023-03-28T23:20:19.197Z,40.23
2023-03-28T23:22:48.627Z,39.40
2023-03-28T23:25:18.709Z,40.96
2023-03-28T23:27:46.661Z,41.09
2023-03-28T23:30:15.756Z,40.76
2023-03-28T23:32:43.509Z,40.88
2023-03-28T23:35:11.836Z,41.25
2023-03-28T23:37:39.539Z,41.38
2023-03-28T23:40:14.839Z,41.12
2023-03-28T23:42:44.733Z,41.46
2023-03-28T23:45:14.678Z,42.13
2023-03-28T23:47:43.959Z,41.95
2023-03-28T23:50:12.059Z,42.74
2023-03-28T23:52:39.996Z,43.38
2023-03-28T23:55:08.770Z,43.58
2023-03-28T23:57:36.405Z,43.29
